Dane County Regional Airport (Madison, WI) (MSN)


Airport Diagram
Current Weather/Forecast (MVFR Conditions)
METAR KMSN 252253Z 29008KT 10SM FEW013 BKN017 OVC024 01/M01 A2984 RMK AO2 SLP113 T00111011
TAF KMSN 251910Z 2519/2618 31008KT 6SM -SN BR OVC013 FM252100 30008KT P6SM OVC012

All Charts
General
Chart Name Download
AIRPORT DIAGRAM
TAKEOFF MINIMUMS
ALTERNATE MINIMUMS
HOT SPOT
LAHSO

Approaches
Chart Name Download
ILS OR LOC RWY 18
ILS OR LOC RWY 21
ILS OR LOC/DME RWY 36
ILS RWY 36 (SA CAT I)
ILS RWY 18 (SA CAT I - II)
ILS RWY 36 (CAT II - III)
RNAV (GPS) RWY 03
RNAV (GPS) RWY 14
RNAV (GPS) RWY 18
RNAV (GPS) RWY 21
RNAV (GPS) RWY 32
RNAV (GPS) RWY 36
VOR RWY 14
VOR RWY 18
VOR RWY 21
VOR RWY 32
VOR RWY 36
HI-TACAN RWY 18
HI-TACAN RWY 36